Aeroporto :
LOGIN :

Iscrizione | Disclaimer

   EN    FR    IT 

 










Sommario :    VFR   VFR Marginale   IFR   IFR Intensivo   IFR Molto Intensivo
Visibilità : 
Base nubi : 
>= 8 km
>= 3000ft
5 / 8 km
1000 / 3000 ft
1500m / 5 km
500 / 1000 ft
800 / 1500m
200 / 500 ft
< 800m
< 200 ft
Simboli :   Temporali  Nebbia  Neve Forte  Precipitazioni Forti  Vento > 20 kt
SIGMETs :   Varie  Temporali  Ghiacco  Turbolenza  Onda orograficha  Ceneri Vulcaniche






- Altitudine del aeroporto : 26 ft


ETNT - Wittmundhaven AB

ULTIMO METAR :
  • 171720Z 04005KT 9999 SCT090 BKN100 04/03 Q1012 BLU

METARs OBSOLETI :
  • 171620Z 01005KT 9999 SCT110 BKN120 04/03 Q1012 BLU
  • 171520Z 02003KT 9999 BKN130 04/03 Q1012 BLU

TAF TAF ETNT
Valido dal 17 a 18 ore il 18 a 03 ore UTC


171700Z 1718/1803 02010KT 9999 NSW SCT060 BKN090
BECMG 1718/1720 02012KT 5000 -RA SCT012 BKN030
BECMG 1721/1723 03012G22KT 4000 -RADZ BKN008
TEMPO 1723/1803 02015G25KT 2000 DZRA BKN005 BY ETGL



MetMap, La meteo Aeronautica in un colpo d'occhio ! - Copyright ORBIFLY Dicembre 2007 - Disclaimer

ORBIFLY MET'MAP TEAM :

Programmazione e sviluppo : Alexandra Zaïnal
Concezione e sviluppo : Baudouin d'Aumeries
Co-Programmazione e sviluppo : Marc-Olivier Méhu
Supporto tecnico e logistico : Manuel Goepfert
Aiuto per la traduzione : Arnaldo La Scala

Contatto : metmap@orbifly.com




FONTI E CREDITI :

   NOAA